KCHD/CHD METAR and TAF weather

Enter ICAO airport designator
Station Type Date Time Source
KCHD METAR 2019/06/18 12:47 UTC NOAA

KCHD 181247Z 02004KT 10SM CLR 23/06 A2986


Station Type Date Time Source
KCHD Decoded METAR 2019/06/18 12:47 UTC NOAA

Chandler, Chandler Municipal Airport, AZ, United States (KCHD) 33-16-09N 111-48-40W
Jun 18, 2019 - 08:47 AM EDT / 2019.06.18 1247 UTC
Wind: from the NNE (020 degrees) at 5 MPH (4 KT):0
Visibility: 10 mile(s):0
Sky conditions: clear
Temperature: 73 F (23 C)
Dew Point: 42 F (6 C)
Relative Humidity: 33%
Pressure (altimeter): 29.86 in. Hg (1011 hPa)
ob: KCHD 181247Z 02004KT 10SM CLR 23/06 A2986
cycle: 13

Station Type Date Time Source
KCHD TAF UTC NOAA

Error!

Example: see airport list